sensor_id;sensor_type;location;lat;lon;timestamp;temperature;humidity
14779;DHT22;7481;53.750;10.570;2023-01-06T00:24:35;6.10;99.90
14779;DHT22;7481;53.750;10.570;2023-01-06T00:27:22;6.10;99.90
14779;DHT22;7481;53.750;10.570;2023-01-06T00:30:10;6.10;99.90
14779;DHT22;7481;53.750;10.570;2023-01-06T00:32:57;6.10;99.90
14779;DHT22;7481;53.750;10.570;2023-01-06T00:35:45;6.20;99.90
14779;DHT22;7481;53.750;10.570;2023-01-06T00:38:32;6.20;99.90
14779;DHT22;7481;53.750;10.570;2023-01-06T00:41:22;6.20;99.90
14779;DHT22;7481;53.750;10.570;2023-01-06T00:44:29;6.20;99.90
14779;DHT22;7481;53.750;10.570;2023-01-06T00:47:16;6.20;99.90
14779;DHT22;7481;53.750;10.570;2023-01-06T00:50:04;6.30;99.90
14779;DHT22;7481;53.750;10.570;2023-01-06T00:52:51;6.20;99.90
14779;DHT22;7481;53.750;10.570;2023-01-06T00:55:39;6.20;99.90
14779;DHT22;7481;53.750;10.570;2023-01-06T00:58:32;6.30;99.90
14779;DHT22;7481;53.750;10.570;2023-01-06T01:01:20;6.30;99.90
14779;DHT22;7481;53.750;10.570;2023-01-06T01:04:08;6.30;99.90
14779;DHT22;7481;53.750;10.570;2023-01-06T01:06:55;6.30;99.90
14779;DHT22;7481;53.750;10.570;2023-01-06T01:09:43;6.40;99.90
14779;DHT22;7481;53.750;10.570;2023-01-06T01:12:30;6.40;99.90
14779;DHT22;7481;53.750;10.570;2023-01-06T01:15:17;6.40;99.90
14779;DHT22;7481;53.750;10.570;2023-01-06T01:18:04;6.40;99.90
14779;DHT22;7481;53.750;10.570;2023-01-06T01:20:51;6.40;99.90
14779;DHT22;7481;53.750;10.570;2023-01-06T01:23:38;6.40;99.90
14779;DHT22;7481;53.750;10.570;2023-01-06T01:26:25;6.40;99.90
14779;DHT22;7481;53.750;10.570;2023-01-06T01:29:14;6.40;99.90
14779;DHT22;7481;53.750;10.570;2023-01-06T01:32:01;6.40;99.90
14779;DHT22;7481;53.750;10.570;2023-01-06T01:34:48;6.40;99.90
14779;DHT22;7481;53.750;10.570;2023-01-06T01:37:35;6.40;99.90
14779;DHT22;7481;53.750;10.570;2023-01-06T01:40:22;6.50;99.90
14779;DHT22;7481;53.750;10.570;2023-01-06T01:43:11;6.50;99.90
14779;DHT22;7481;53.750;10.570;2023-01-06T01:45:58;6.50;99.90
14779;DHT22;7481;53.750;10.570;2023-01-06T01:48:45;6.50;99.90
14779;DHT22;7481;53.750;10.570;2023-01-06T01:51:39;6.50;99.90
14779;DHT22;7481;53.750;10.570;2023-01-06T01:54:28;6.50;99.90
14779;DHT22;7481;53.750;10.570;2023-01-06T01:57:28;6.50;99.90
14779;DHT22;7481;53.750;10.570;2023-01-06T02:00:18;6.50;99.90
14779;DHT22;7481;53.750;10.570;2023-01-06T02:03:05;6.50;99.90
14779;DHT22;7481;53.750;10.570;2023-01-06T02:05:54;6.50;99.90
14779;DHT22;7481;53.750;10.570;2023-01-06T02:11:50;6.60;99.90
14779;DHT22;7481;53.750;10.570;2023-01-06T02:14:37;6.60;99.90
14779;DHT22;7481;53.750;10.570;2023-01-06T02:17:38;6.60;99.90
14779;DHT22;7481;53.750;10.570;2023-01-06T02:20:44;6.60;99.90
14779;DHT22;7481;53.750;10.570;2023-01-06T02:29:33;6.70;99.90
14779;DHT22;7481;53.750;10.570;2023-01-06T02:32:52;6.70;99.90
14779;DHT22;7481;53.750;10.570;2023-01-06T02:36:12;6.70;99.90
14779;DHT22;7481;53.750;10.570;2023-01-06T02:39:18;6.70;99.90
14779;DHT22;7481;53.750;10.570;2023-01-06T02:57:44;6.80;99.90
14779;DHT22;7481;53.750;10.570;2023-01-06T03:00:37;6.90;99.90
14779;DHT22;7481;53.750;10.570;2023-01-06T03:03:31;6.90;99.90
14779;DHT22;7481;53.750;10.570;2023-01-06T03:06:25;6.90;99.90
14779;DHT22;7481;53.750;10.570;2023-01-06T03:09:20;6.90;99.90
14779;DHT22;7481;53.750;10.570;2023-01-06T03:12:39;6.90;99.90
14779;DHT22;7481;53.750;10.570;2023-01-06T03:15:27;6.90;99.90
14779;DHT22;7481;53.750;10.570;2023-01-06T03:18:14;6.90;99.90
14779;DHT22;7481;53.750;10.570;2023-01-06T03:21:06;6.90;99.90
14779;DHT22;7481;53.750;10.570;2023-01-06T03:23:55;7.00;99.90
14779;DHT22;7481;53.750;10.570;2023-01-06T03:26:44;7.00;99.90
14779;DHT22;7481;53.750;10.570;2023-01-06T03:29:32;7.00;99.90
14779;DHT22;7481;53.750;10.570;2023-01-06T03:32:37;7.00;99.90
14779;DHT22;7481;53.750;10.570;2023-01-06T03:35:38;7.00;99.90
14779;DHT22;7481;53.750;10.570;2023-01-06T03:41:43;7.10;99.90
14779;DHT22;7481;53.750;10.570;2023-01-06T03:45:07;7.20;99.90
14779;DHT22;7481;53.750;10.570;2023-01-06T03:54:12;7.20;99.90
14779;DHT22;7481;53.750;10.570;2023-01-06T03:57:20;7.20;99.90
14779;DHT22;7481;53.750;10.570;2023-01-06T04:03:10;7.30;99.90
14779;DHT22;7481;53.750;10.570;2023-01-06T04:05:57;7.30;99.90
14779;DHT22;7481;53.750;10.570;2023-01-06T04:08:44;7.30;99.90
14779;DHT22;7481;53.750;10.570;2023-01-06T04:11:32;7.30;99.90
14779;DHT22;7481;53.750;10.570;2023-01-06T04:14:37;7.30;99.90
14779;DHT22;7481;53.750;10.570;2023-01-06T04:17:24;7.30;99.90
14779;DHT22;7481;53.750;10.570;2023-01-06T04:20:22;7.30;99.90
14779;DHT22;7481;53.750;10.570;2023-01-06T04:23:09;7.30;99.90
14779;DHT22;7481;53.750;10.570;2023-01-06T04:25:56;7.40;99.90
14779;DHT22;7481;53.750;10.570;2023-01-06T04:28:42;7.40;99.90
14779;DHT22;7481;53.750;10.570;2023-01-06T04:31:29;7.40;99.90
14779;DHT22;7481;53.750;10.570;2023-01-06T04:34:17;7.40;99.90
14779;DHT22;7481;53.750;10.570;2023-01-06T04:37:04;7.40;99.90
14779;DHT22;7481;53.750;10.570;2023-01-06T04:39:51;7.40;99.90
14779;DHT22;7481;53.750;10.570;2023-01-06T04:42:37;7.50;99.90
14779;DHT22;7481;53.750;10.570;2023-01-06T04:45:43;7.50;99.90
14779;DHT22;7481;53.750;10.570;2023-01-06T04:48:30;7.50;99.90
14779;DHT22;7481;53.750;10.570;2023-01-06T04:51:18;7.50;99.90
14779;DHT22;7481;53.750;10.570;2023-01-06T04:54:05;7.50;99.90
14779;DHT22;7481;53.750;10.570;2023-01-06T04:56:52;7.60;99.90
14779;DHT22;7481;53.750;10.570;2023-01-06T04:59:39;7.60;99.90
14779;DHT22;7481;53.750;10.570;2023-01-06T05:02:26;7.50;99.90
14779;DHT22;7481;53.750;10.570;2023-01-06T05:05:14;7.60;99.90
14779;DHT22;7481;53.750;10.570;2023-01-06T05:08:01;7.60;99.90
14779;DHT22;7481;53.750;10.570;2023-01-06T05:10:48;7.60;99.90
14779;DHT22;7481;53.750;10.570;2023-01-06T05:13:36;7.60;99.90
14779;DHT22;7481;53.750;10.570;2023-01-06T05:16:25;7.70;99.90
14779;DHT22;7481;53.750;10.570;2023-01-06T05:19:13;7.70;99.90
14779;DHT22;7481;53.750;10.570;2023-01-06T05:22:00;7.70;99.90
14779;DHT22;7481;53.750;10.570;2023-01-06T05:24:47;7.80;99.90
14779;DHT22;7481;53.750;10.570;2023-01-06T05:27:34;7.80;99.90
14779;DHT22;7481;53.750;10.570;2023-01-06T05:30:21;7.90;99.90
14779;DHT22;7481;53.750;10.570;2023-01-06T05:33:09;7.90;99.90
14779;DHT22;7481;53.750;10.570;2023-01-06T05:36:07;8.00;99.90
14779;DHT22;7481;53.750;10.570;2023-01-06T05:38:54;8.00;99.90
14779;DHT22;7481;53.750;10.570;2023-01-06T05:41:41;8.00;99.90
14779;DHT22;7481;53.750;10.570;2023-01-06T05:44:28;8.00;99.90
14779;DHT22;7481;53.750;10.570;2023-01-06T05:47:15;8.10;99.90
14779;DHT22;7481;53.750;10.570;2023-01-06T05:50:04;8.10;99.90
14779;DHT22;7481;53.750;10.570;2023-01-06T05:52:52;8.10;99.90
14779;DHT22;7481;53.750;10.570;2023-01-06T05:55:39;8.20;99.90
14779;DHT22;7481;53.750;10.570;2023-01-06T05:58:26;8.20;99.90
14779;DHT22;7481;53.750;10.570;2023-01-06T06:04:03;8.20;99.90
14779;DHT22;7481;53.750;10.570;2023-01-06T06:06:50;8.20;99.90
14779;DHT22;7481;53.750;10.570;2023-01-06T06:09:37;8.20;99.90
14779;DHT22;7481;53.750;10.570;2023-01-06T06:12:24;8.30;99.90
14779;DHT22;7481;53.750;10.570;2023-01-06T06:15:11;8.40;99.90
14779;DHT22;7481;53.750;10.570;2023-01-06T06:18:01;8.40;99.90
14779;DHT22;7481;53.750;10.570;2023-01-06T06:20:48;8.40;99.90
14779;DHT22;7481;53.750;10.570;2023-01-06T06:23:35;8.50;99.90
14779;DHT22;7481;53.750;10.570;2023-01-06T06:26:22;8.60;99.90
14779;DHT22;7481;53.750;10.570;2023-01-06T06:29:09;8.60;99.90
14779;DHT22;7481;53.750;10.570;2023-01-06T06:31:57;8.60;99.90
14779;DHT22;7481;53.750;10.570;2023-01-06T06:34:43;8.70;99.90
14779;DHT22;7481;53.750;10.570;2023-01-06T06:37:30;8.70;99.90
14779;DHT22;7481;53.750;10.570;2023-01-06T06:40:17;8.80;99.90
14779;DHT22;7481;53.750;10.570;2023-01-06T06:43:04;8.90;99.90
14779;DHT22;7481;53.750;10.570;2023-01-06T06:45:51;8.90;99.90
14779;DHT22;7481;53.750;10.570;2023-01-06T06:48:38;9.00;99.90
14779;DHT22;7481;53.750;10.570;2023-01-06T06:51:26;9.00;99.90
14779;DHT22;7481;53.750;10.570;2023-01-06T06:54:15;9.00;99.90
14779;DHT22;7481;53.750;10.570;2023-01-06T06:57:02;9.10;99.90
14779;DHT22;7481;53.750;10.570;2023-01-06T06:59:49;9.10;99.90
14779;DHT22;7481;53.750;10.570;2023-01-06T07:02:36;9.20;99.90
14779;DHT22;7481;53.750;10.570;2023-01-06T07:05:25;9.20;99.90
14779;DHT22;7481;53.750;10.570;2023-01-06T07:08:12;9.20;99.90
14779;DHT22;7481;53.750;10.570;2023-01-06T07:11:00;9.20;99.90
14779;DHT22;7481;53.750;10.570;2023-01-06T07:13:47;9.30;99.90
14779;DHT22;7481;53.750;10.570;2023-01-06T07:16:34;9.40;99.90
14779;DHT22;7481;53.750;10.570;2023-01-06T07:19:21;9.30;99.90
14779;DHT22;7481;53.750;10.570;2023-01-06T07:22:08;9.30;99.90
14779;DHT22;7481;53.750;10.570;2023-01-06T07:24:55;9.40;99.90
14779;DHT22;7481;53.750;10.570;2023-01-06T07:27:42;9.40;99.90
14779;DHT22;7481;53.750;10.570;2023-01-06T07:30:29;9.40;99.90
14779;DHT22;7481;53.750;10.570;2023-01-06T07:33:18;9.40;99.90
14779;DHT22;7481;53.750;10.570;2023-01-06T07:36:06;9.40;99.90
14779;DHT22;7481;53.750;10.570;2023-01-06T07:38:53;9.40;99.90
14779;DHT22;7481;53.750;10.570;2023-01-06T07:41:40;9.40;99.90
14779;DHT22;7481;53.750;10.570;2023-01-06T07:44:27;9.40;99.90
14779;DHT22;7481;53.750;10.570;2023-01-06T07:47:14;9.40;99.90
14779;DHT22;7481;53.750;10.570;2023-01-06T07:50:01;9.40;99.90
14779;DHT22;7481;53.750;10.570;2023-01-06T07:52:49;9.40;99.90
14779;DHT22;7481;53.750;10.570;2023-01-06T07:55:36;9.50;99.90
14779;DHT22;7481;53.750;10.570;2023-01-06T07:58:23;9.50;99.90
14779;DHT22;7481;53.750;10.570;2023-01-06T08:01:10;9.40;99.90
14779;DHT22;7481;53.750;10.570;2023-01-06T08:03:58;9.40;99.90
14779;DHT22;7481;53.750;10.570;2023-01-06T08:06:45;9.40;99.90
14779;DHT22;7481;53.750;10.570;2023-01-06T08:09:32;9.40;99.90
14779;DHT22;7481;53.750;10.570;2023-01-06T08:12:19;9.40;99.90
14779;DHT22;7481;53.750;10.570;2023-01-06T08:15:07;9.40;99.90
14779;DHT22;7481;53.750;10.570;2023-01-06T08:17:54;9.40;99.90
14779;DHT22;7481;53.750;10.570;2023-01-06T08:20:41;9.40;99.90
14779;DHT22;7481;53.750;10.570;2023-01-06T08:23:29;9.50;99.90
14779;DHT22;7481;53.750;10.570;2023-01-06T08:26:17;9.50;99.90
14779;DHT22;7481;53.750;10.570;2023-01-06T08:29:04;9.50;99.90
14779;DHT22;7481;53.750;10.570;2023-01-06T08:31:51;9.50;99.90
14779;DHT22;7481;53.750;10.570;2023-01-06T08:34:51;9.50;99.90
14779;DHT22;7481;53.750;10.570;2023-01-06T08:37:38;9.50;99.90
14779;DHT22;7481;53.750;10.570;2023-01-06T08:40:25;9.60;99.90
14779;DHT22;7481;53.750;10.570;2023-01-06T08:43:12;9.60;99.90
14779;DHT22;7481;53.750;10.570;2023-01-06T08:46:04;9.60;99.90
14779;DHT22;7481;53.750;10.570;2023-01-06T08:48:51;9.60;99.90
14779;DHT22;7481;53.750;10.570;2023-01-06T08:51:38;9.60;99.90
14779;DHT22;7481;53.750;10.570;2023-01-06T08:54:27;9.60;99.90
14779;DHT22;7481;53.750;10.570;2023-01-06T08:57:15;9.60;99.90
14779;DHT22;7481;53.750;10.570;2023-01-06T09:00:04;9.60;99.90
14779;DHT22;7481;53.750;10.570;2023-01-06T09:02:51;9.60;99.90
14779;DHT22;7481;53.750;10.570;2023-01-06T09:05:38;9.60;99.90
14779;DHT22;7481;53.750;10.570;2023-01-06T09:08:25;9.60;99.90
14779;DHT22;7481;53.750;10.570;2023-01-06T09:11:13;9.60;99.90
14779;DHT22;7481;53.750;10.570;2023-01-06T09:14:01;9.70;99.90
14779;DHT22;7481;53.750;10.570;2023-01-06T09:16:48;9.80;99.90
14779;DHT22;7481;53.750;10.570;2023-01-06T09:19:35;9.80;99.90
14779;DHT22;7481;53.750;10.570;2023-01-06T09:22:22;10.70;99.90
14779;DHT22;7481;53.750;10.570;2023-01-06T09:25:09;9.80;99.90
14779;DHT22;7481;53.750;10.570;2023-01-06T09:27:57;9.80;99.90
14779;DHT22;7481;53.750;10.570;2023-01-06T09:30:45;9.80;99.90
14779;DHT22;7481;53.750;10.570;2023-01-06T09:33:33;9.80;99.90
14779;DHT22;7481;53.750;10.570;2023-01-06T09:36:21;9.80;99.90
14779;DHT22;7481;53.750;10.570;2023-01-06T09:39:08;9.80;99.90
14779;DHT22;7481;53.750;10.570;2023-01-06T09:42:05;9.80;99.90
14779;DHT22;7481;53.750;10.570;2023-01-06T09:45:00;9.80;99.90
14779;DHT22;7481;53.750;10.570;2023-01-06T09:47:51;9.80;99.90
14779;DHT22;7481;53.750;10.570;2023-01-06T09:50:45;9.80;99.90
14779;DHT22;7481;53.750;10.570;2023-01-06T09:53:38;9.90;99.90
14779;DHT22;7481;53.750;10.570;2023-01-06T09:56:26;9.80;99.90
14779;DHT22;7481;53.750;10.570;2023-01-06T09:59:27;9.90;99.90
14779;DHT22;7481;53.750;10.570;2023-01-06T10:02:32;9.90;99.90
14779;DHT22;7481;53.750;10.570;2023-01-06T10:05:44;9.90;99.90
14779;DHT22;7481;53.750;10.570;2023-01-06T10:15:02;9.90;99.90
14779;DHT22;7481;53.750;10.570;2023-01-06T10:18:05;9.90;99.90
14779;DHT22;7481;53.750;10.570;2023-01-06T10:21:05;9.90;99.90
14779;DHT22;7481;53.750;10.570;2023-01-06T10:24:23;9.90;99.90
14779;DHT22;7481;53.750;10.570;2023-01-06T10:27:20;10.00;99.90
14779;DHT22;7481;53.750;10.570;2023-01-06T10:30:20;10.00;99.90
14779;DHT22;7481;53.750;10.570;2023-01-06T10:33:37;9.90;99.90
14779;DHT22;7481;53.750;10.570;2023-01-06T10:36:48;9.90;99.90
14779;DHT22;7481;53.750;10.570;2023-01-06T10:39:39;9.90;99.90
14779;DHT22;7481;53.750;10.570;2023-01-06T10:42:53;9.90;99.90
14779;DHT22;7481;53.750;10.570;2023-01-06T10:45:45;9.90;99.90
14779;DHT22;7481;53.750;10.570;2023-01-06T10:48:33;9.90;99.90
14779;DHT22;7481;53.750;10.570;2023-01-06T10:51:58;10.00;99.90
14779;DHT22;7481;53.750;10.570;2023-01-06T10:54:49;9.90;99.90
14779;DHT22;7481;53.750;10.570;2023-01-06T10:57:39;10.00;99.90
14779;DHT22;7481;53.750;10.570;2023-01-06T11:00:27;10.00;99.90
14779;DHT22;7481;53.750;10.570;2023-01-06T11:03:15;10.10;99.90
14779;DHT22;7481;53.750;10.570;2023-01-06T11:06:27;10.20;99.90
14779;DHT22;7481;53.750;10.570;2023-01-06T11:12:26;10.20;99.90
14779;DHT22;7481;53.750;10.570;2023-01-06T11:15:20;10.20;99.90
14779;DHT22;7481;53.750;10.570;2023-01-06T11:18:30;10.20;99.90
14779;DHT22;7481;53.750;10.570;2023-01-06T11:21:18;10.10;99.90
14779;DHT22;7481;53.750;10.570;2023-01-06T11:27:15;9.90;99.90
14779;DHT22;7481;53.750;10.570;2023-01-06T11:30:25;9.80;99.90
14779;DHT22;7481;53.750;10.570;2023-01-06T11:33:17;9.70;99.90
14779;DHT22;7481;53.750;10.570;2023-01-06T11:36:07;9.70;99.90
14779;DHT22;7481;53.750;10.570;2023-01-06T11:39:13;9.70;99.90
14779;DHT22;7481;53.750;10.570;2023-01-06T11:42:08;9.80;99.90
14779;DHT22;7481;53.750;10.570;2023-01-06T11:44:57;9.90;99.90
14779;DHT22;7481;53.750;10.570;2023-01-06T11:47:48;9.90;99.90
14779;DHT22;7481;53.750;10.570;2023-01-06T11:50:36;9.70;99.90
14779;DHT22;7481;53.750;10.570;2023-01-06T11:53:23;9.70;99.90
14779;DHT22;7481;53.750;10.570;2023-01-06T11:59:09;9.70;99.90
14779;DHT22;7481;53.750;10.570;2023-01-06T12:02:00;9.70;99.90
14779;DHT22;7481;53.750;10.570;2023-01-06T12:04:50;9.60;99.90
14779;DHT22;7481;53.750;10.570;2023-01-06T12:07:48;9.50;99.90
14779;DHT22;7481;53.750;10.570;2023-01-06T12:10:39;9.40;99.90
14779;DHT22;7481;53.750;10.570;2023-01-06T12:13:31;9.40;99.90
14779;DHT22;7481;53.750;10.570;2023-01-06T12:16:54;9.50;99.90
14779;DHT22;7481;53.750;10.570;2023-01-06T12:22:53;9.60;99.90
14779;DHT22;7481;53.750;10.570;2023-01-06T12:25:43;9.60;99.90
14779;DHT22;7481;53.750;10.570;2023-01-06T12:28:39;9.40;99.90
14779;DHT22;7481;53.750;10.570;2023-01-06T12:34:35;9.10;99.90
14779;DHT22;7481;53.750;10.570;2023-01-06T12:37:44;9.00;99.90
14779;DHT22;7481;53.750;10.570;2023-01-06T12:40:38;8.90;99.90
14779;DHT22;7481;53.750;10.570;2023-01-06T12:43:31;8.90;99.90
14779;DHT22;7481;53.750;10.570;2023-01-06T12:46:25;9.00;99.90
14779;DHT22;7481;53.750;10.570;2023-01-06T12:49:38;9.20;99.90
14779;DHT22;7481;53.750;10.570;2023-01-06T12:52:39;9.40;99.90
14779;DHT22;7481;53.750;10.570;2023-01-06T12:55:43;9.50;99.90
14779;DHT22;7481;53.750;10.570;2023-01-06T12:58:43;9.50;99.90
14779;DHT22;7481;53.750;10.570;2023-01-06T13:02:42;9.50;99.90
14779;DHT22;7481;53.750;10.570;2023-01-06T13:05:16;9.40;99.90
14779;DHT22;7481;53.750;10.570;2023-01-06T13:11:30;9.20;99.90
14779;DHT22;7481;53.750;10.570;2023-01-06T13:17:20;9.00;99.90
14779;DHT22;7481;53.750;10.570;2023-01-06T13:20:48;8.90;99.90
14779;DHT22;7481;53.750;10.570;2023-01-06T13:24:02;8.90;99.90
14779;DHT22;7481;53.750;10.570;2023-01-06T13:37:38;8.80;99.90
14779;DHT22;7481;53.750;10.570;2023-01-06T13:40:28;8.80;99.90
14779;DHT22;7481;53.750;10.570;2023-01-06T13:43:31;8.90;99.90
14779;DHT22;7481;53.750;10.570;2023-01-06T13:46:22;8.90;99.90
14779;DHT22;7481;53.750;10.570;2023-01-06T13:49:13;8.90;99.90
14779;DHT22;7481;53.750;10.570;2023-01-06T13:52:01;8.90;99.90
14779;DHT22;7481;53.750;10.570;2023-01-06T13:57:38;8.80;99.90
14779;DHT22;7481;53.750;10.570;2023-01-06T14:00:26;8.80;99.90
14779;DHT22;7481;53.750;10.570;2023-01-06T14:03:21;8.80;99.90
14779;DHT22;7481;53.750;10.570;2023-01-06T14:09:16;10.40;99.90
14779;DHT22;7481;53.750;10.570;2023-01-06T14:12:16;8.70;99.90
14779;DHT22;7481;53.750;10.570;2023-01-06T14:15:06;8.70;99.90
14779;DHT22;7481;53.750;10.570;2023-01-06T14:18:05;8.70;99.90
14779;DHT22;7481;53.750;10.570;2023-01-06T14:20:59;8.70;99.90
14779;DHT22;7481;53.750;10.570;2023-01-06T14:24:06;8.70;99.90
14779;DHT22;7481;53.750;10.570;2023-01-06T14:27:04;8.60;99.90
14779;DHT22;7481;53.750;10.570;2023-01-06T14:30:04;8.70;99.90
14779;DHT22;7481;53.750;10.570;2023-01-06T14:36:02;8.60;99.90
14779;DHT22;7481;53.750;10.570;2023-01-06T14:38:54;8.70;99.90
14779;DHT22;7481;53.750;10.570;2023-01-06T14:41:50;8.60;99.90
14779;DHT22;7481;53.750;10.570;2023-01-06T14:44:43;8.60;99.90
14779;DHT22;7481;53.750;10.570;2023-01-06T14:47:40;8.60;99.90
14779;DHT22;7481;53.750;10.570;2023-01-06T14:50:35;8.60;99.90
14779;DHT22;7481;53.750;10.570;2023-01-06T14:53:40;8.50;99.90
14779;DHT22;7481;53.750;10.570;2023-01-06T14:56:30;8.50;99.90
14779;DHT22;7481;53.750;10.570;2023-01-06T14:59:18;8.50;99.90
14779;DHT22;7481;53.750;10.570;2023-01-06T15:02:14;8.50;99.90
14779;DHT22;7481;53.750;10.570;2023-01-06T15:05:02;8.40;99.90
14779;DHT22;7481;53.750;10.570;2023-01-06T15:08:21;8.40;99.90
14779;DHT22;7481;53.750;10.570;2023-01-06T15:14:26;8.40;99.90
14779;DHT22;7481;53.750;10.570;2023-01-06T15:17:14;8.40;99.90
14779;DHT22;7481;53.750;10.570;2023-01-06T15:20:10;8.40;99.90
14779;DHT22;7481;53.750;10.570;2023-01-06T15:22:58;8.30;99.90
14779;DHT22;7481;53.750;10.570;2023-01-06T15:25:53;8.40;99.90
14779;DHT22;7481;53.750;10.570;2023-01-06T15:28:40;8.20;99.90
14779;DHT22;7481;53.750;10.570;2023-01-06T15:31:36;8.30;99.90
14779;DHT22;7481;53.750;10.570;2023-01-06T15:34:35;8.20;99.90
14779;DHT22;7481;53.750;10.570;2023-01-06T15:37:24;8.30;99.90
14779;DHT22;7481;53.750;10.570;2023-01-06T15:40:18;8.40;99.90
14779;DHT22;7481;53.750;10.570;2023-01-06T15:43:06;8.30;99.90
14779;DHT22;7481;53.750;10.570;2023-01-06T15:48:46;8.40;99.90
14779;DHT22;7481;53.750;10.570;2023-01-06T15:51:34;8.40;99.90
14779;DHT22;7481;53.750;10.570;2023-01-06T15:54:22;8.40;99.90
14779;DHT22;7481;53.750;10.570;2023-01-06T15:57:11;8.40;99.90
14779;DHT22;7481;53.750;10.570;2023-01-06T16:00:17;8.40;99.90
14779;DHT22;7481;53.750;10.570;2023-01-06T16:03:05;8.40;99.90
14779;DHT22;7481;53.750;10.570;2023-01-06T16:17:44;8.40;99.90
14779;DHT22;7481;53.750;10.570;2023-01-06T16:20:31;8.10;99.90
14779;DHT22;7481;53.750;10.570;2023-01-06T16:23:28;8.30;99.90
14779;DHT22;7481;53.750;10.570;2023-01-06T16:26:20;8.30;99.90
14779;DHT22;7481;53.750;10.570;2023-01-06T16:29:29;8.30;99.90
14779;DHT22;7481;53.750;10.570;2023-01-06T16:38:08;8.10;99.90
14779;DHT22;7481;53.750;10.570;2023-01-06T16:40:55;8.50;99.90
14779;DHT22;7481;53.750;10.570;2023-01-06T16:46:30;8.20;99.90
14779;DHT22;7481;53.750;10.570;2023-01-06T16:52:06;8.10;99.90
14779;DHT22;7481;53.750;10.570;2023-01-06T16:54:55;8.10;99.90
14779;DHT22;7481;53.750;10.570;2023-01-06T17:06:20;7.90;99.90
14779;DHT22;7481;53.750;10.570;2023-01-06T17:12:12;7.80;99.90
14779;DHT22;7481;53.750;10.570;2023-01-06T17:15:22;8.00;99.90
14779;DHT22;7481;53.750;10.570;2023-01-06T17:21:14;7.80;99.90
14779;DHT22;7481;53.750;10.570;2023-01-06T17:24:18;7.90;99.90
14779;DHT22;7481;53.750;10.570;2023-01-06T17:27:23;7.80;99.90
14779;DHT22;7481;53.750;10.570;2023-01-06T17:30:16;7.50;99.90
14779;DHT22;7481;53.750;10.570;2023-01-06T17:33:07;7.70;99.90
14779;DHT22;7481;53.750;10.570;2023-01-06T18:27:49;6.70;99.90
14779;DHT22;7481;53.750;10.570;2023-01-06T19:28:20;6.30;99.90
14779;DHT22;7481;53.750;10.570;2023-01-06T20:02:29;6.50;99.90
14779;DHT22;7481;53.750;10.570;2023-01-06T20:05:17;6.20;99.90
14779;DHT22;7481;53.750;10.570;2023-01-06T20:08:05;6.10;99.90
14779;DHT22;7481;53.750;10.570;2023-01-06T20:10:52;6.00;99.90
14779;DHT22;7481;53.750;10.570;2023-01-06T20:13:39;5.20;99.90
14779;DHT22;7481;53.750;10.570;2023-01-06T20:16:26;6.10;99.90
14779;DHT22;7481;53.750;10.570;2023-01-06T20:19:13;6.30;99.90
14779;DHT22;7481;53.750;10.570;2023-01-06T20:22:01;6.10;99.90
14779;DHT22;7481;53.750;10.570;2023-01-06T20:24:48;5.90;99.90
14779;DHT22;7481;53.750;10.570;2023-01-06T20:27:35;6.00;99.90
14779;DHT22;7481;53.750;10.570;2023-01-06T20:30:22;5.80;99.90
14779;DHT22;7481;53.750;10.570;2023-01-06T20:33:10;5.90;99.90
14779;DHT22;7481;53.750;10.570;2023-01-06T20:35:57;5.80;99.90
14779;DHT22;7481;53.750;10.570;2023-01-06T20:38:44;6.10;99.90
14779;DHT22;7481;53.750;10.570;2023-01-06T20:41:31;5.40;99.90
14779;DHT22;7481;53.750;10.570;2023-01-06T20:52:43;6.30;99.90
14779;DHT22;7481;53.750;10.570;2023-01-06T20:55:33;5.80;99.90
14779;DHT22;7481;53.750;10.570;2023-01-06T20:58:21;5.70;99.90
14779;DHT22;7481;53.750;10.570;2023-01-06T21:01:10;5.50;99.90
14779;DHT22;7481;53.750;10.570;2023-01-06T21:03:57;5.80;99.90
14779;DHT22;7481;53.750;10.570;2023-01-06T23:15:22;5.00;99.90
14779;DHT22;7481;53.750;10.570;2023-01-06T23:20:58;5.00;99.90
14779;DHT22;7481;53.750;10.570;2023-01-06T23:23:46;5.00;99.90
14779;DHT22;7481;53.750;10.570;2023-01-06T23:26:43;5.00;99.90
14779;DHT22;7481;53.750;10.570;2023-01-06T23:29:31;5.00;99.90
14779;DHT22;7481;53.750;10.570;2023-01-06T23:32:18;5.10;99.90
14779;DHT22;7481;53.750;10.570;2023-01-06T23:35:06;5.10;99.90
14779;DHT22;7481;53.750;10.570;2023-01-06T23:37:53;5.10;99.90
14779;DHT22;7481;53.750;10.570;2023-01-06T23:40:40;5.10;99.90
14779;DHT22;7481;53.750;10.570;2023-01-06T23:43:28;5.00;99.90
14779;DHT22;7481;53.750;10.570;2023-01-06T23:46:21;4.90;99.90
14779;DHT22;7481;53.750;10.570;2023-01-06T23:49:10;4.90;99.90
14779;DHT22;7481;53.750;10.570;2023-01-06T23:51:58;4.90;99.90
14779;DHT22;7481;53.750;10.570;2023-01-06T23:54:45;4.90;99.90
14779;DHT22;7481;53.750;10.570;2023-01-06T23:57:32;4.90;99.90
